createdAt,value
2022-08-17T00:01:45.534Z,6.47
2022-08-17T00:04:20.090Z,6.22
2022-08-17T00:06:49.101Z,6.28
2022-08-17T00:09:18.939Z,6.20
2022-08-17T00:12:40.798Z,6.82
2022-08-17T00:14:34.908Z,6.72
2022-08-17T00:17:02.609Z,6.40
2022-08-17T00:19:29.614Z,7.15
2022-08-17T00:22:31.114Z,7.47
2022-08-17T00:24:46.718Z,7.60
2022-08-17T00:27:13.136Z,7.93
2022-08-17T00:29:39.643Z,7.00
2022-08-17T00:33:15.647Z,7.55
2022-08-17T00:34:53.068Z,7.93
2022-08-17T00:37:19.483Z,8.30
2022-08-17T00:39:45.947Z,8.15
2022-08-17T00:42:17.584Z,7.75
2022-08-17T00:44:44.427Z,7.43
2022-08-17T00:47:10.820Z,8.68
2022-08-17T00:49:37.228Z,7.22
2022-08-17T00:52:11.602Z,8.15
2022-08-17T00:54:42.077Z,7.60
2022-08-17T00:57:11.714Z,7.68
2022-08-17T00:59:41.066Z,7.43
2022-08-17T01:02:09.525Z,7.60
2022-08-17T01:04:36.290Z,8.00
2022-08-17T01:07:04.236Z,7.85
2022-08-17T01:09:31.358Z,7.75
2022-08-17T01:11:57.786Z,8.95
2022-08-17T01:14:25.368Z,8.18
2022-08-17T01:16:54.088Z,8.48
2022-08-17T01:19:23.022Z,8.43
2022-08-17T01:22:10.820Z,7.40
2022-08-17T01:24:41.034Z,7.25
2022-08-17T01:27:10.479Z,7.50
2022-08-17T01:29:38.844Z,7.35
2022-08-17T01:32:07.812Z,7.95
2022-08-17T01:34:42.716Z,7.35
2022-08-17T01:37:10.807Z,6.50
2022-08-17T01:39:44.735Z,7.38
2022-08-17T01:42:18.462Z,6.80
2022-08-17T01:44:45.005Z,6.95
2022-08-17T01:47:11.624Z,7.65
2022-08-17T01:49:38.480Z,7.45
2022-08-17T01:52:11.884Z,7.43
2022-08-17T01:54:40.536Z,8.23
2022-08-17T01:57:07.998Z,7.43
2022-08-17T01:59:34.447Z,8.05
2022-08-17T02:02:01.023Z,7.80
2022-08-17T02:04:27.457Z,7.82
2022-08-17T02:06:54.655Z,7.75
2022-08-17T02:09:25.296Z,7.97
2022-08-17T02:11:54.168Z,7.82
2022-08-17T02:14:20.726Z,8.73
2022-08-17T02:16:47.179Z,7.95
2022-08-17T02:19:15.863Z,8.00
2022-08-17T02:21:46.245Z,8.23
2022-08-17T02:24:58.908Z,8.32
2022-08-17T02:27:05.998Z,8.95
2022-08-17T02:29:32.477Z,8.70
2022-08-17T02:31:59.924Z,9.88
2022-08-17T02:34:26.315Z,9.52
2022-08-17T02:36:53.348Z,9.35
2022-08-17T02:39:20.080Z,9.10
2022-08-17T02:41:46.539Z,9.15
2022-08-17T02:44:12.978Z,9.02
2022-08-17T02:46:59.397Z,8.43
2022-08-17T02:49:25.965Z,8.30
2022-08-17T02:51:52.355Z,9.18
2022-08-17T02:54:39.785Z,8.60
2022-08-17T02:57:05.301Z,9.05
2022-08-17T02:59:31.698Z,9.15
2022-08-17T03:01:58.226Z,9.63
2022-08-17T03:04:24.802Z,10.32
2022-08-17T03:06:51.365Z,10.55
2022-08-17T03:09:17.853Z,9.82
2022-08-17T03:11:44.327Z,9.77
2022-08-17T03:14:10.777Z,10.57
2022-08-17T03:16:37.218Z,10.60
2022-08-17T03:19:05.702Z,10.60
2022-08-17T03:21:32.170Z,10.13
2022-08-17T03:23:58.657Z,10.00
2022-08-17T03:26:25.062Z,10.40
2022-08-17T03:28:56.164Z,10.48
2022-08-17T03:31:22.713Z,10.18
2022-08-17T03:33:49.102Z,11.23
2022-08-17T03:36:15.745Z,11.10
2022-08-17T03:38:42.141Z,11.77
2022-08-17T03:41:09.278Z,10.52
2022-08-17T03:43:35.737Z,11.70
2022-08-17T03:46:28.327Z,11.30
2022-08-17T03:49:20.832Z,11.65
2022-08-17T03:52:05.970Z,11.45
2022-08-17T03:54:50.812Z,11.18
2022-08-17T03:57:17.404Z,11.48
2022-08-17T03:59:45.106Z,11.32
2022-08-17T04:02:17.898Z,11.50
2022-08-17T04:04:44.627Z,12.27
2022-08-17T04:07:11.473Z,11.00
2022-08-17T04:09:38.089Z,12.02
2022-08-17T04:12:05.224Z,11.45
2022-08-17T04:14:37.840Z,12.25
2022-08-17T04:17:20.083Z,11.75
2022-08-17T04:19:46.602Z,12.48
2022-08-17T04:22:30.997Z,11.38
2022-08-17T04:24:59.929Z,12.45
2022-08-17T04:27:27.121Z,12.95
2022-08-17T04:29:54.714Z,13.73
2022-08-17T04:33:02.281Z,13.68
2022-08-17T04:35:09.490Z,13.02
2022-08-17T04:37:35.899Z,13.82
2022-08-17T04:40:21.007Z,13.73
2022-08-17T04:43:00.980Z,14.10
2022-08-17T04:45:27.592Z,13.68
2022-08-17T04:47:58.937Z,14.02
2022-08-17T04:50:25.361Z,14.02
2022-08-17T04:52:51.902Z,14.23
2022-08-17T04:55:18.439Z,13.52
2022-08-17T04:57:45.222Z,13.68
2022-08-17T05:00:12.166Z,13.43
2022-08-17T05:02:49.963Z,13.05
2022-08-17T05:05:22.007Z,13.10
2022-08-17T05:07:52.423Z,12.60
2022-08-17T05:10:19.737Z,12.65
2022-08-17T05:12:46.236Z,12.60
2022-08-17T05:15:16.022Z,12.75
2022-08-17T05:17:43.670Z,13.18
2022-08-17T05:20:10.423Z,17.63
2022-08-17T05:22:36.877Z,15.07
2022-08-17T05:25:03.405Z,13.68
2022-08-17T05:27:35.279Z,12.18
2022-08-17T05:30:02.348Z,12.40
2022-08-17T05:32:37.232Z,13.60
2022-08-17T05:35:06.721Z,12.65
2022-08-17T05:37:33.277Z,12.68
2022-08-17T05:39:59.742Z,12.85
2022-08-17T05:42:26.226Z,13.07
2022-08-17T05:44:52.692Z,13.00
2022-08-17T05:47:19.375Z,13.57
2022-08-17T05:49:49.095Z,13.60
2022-08-17T05:52:21.046Z,13.90
2022-08-17T05:55:13.721Z,13.90
2022-08-17T05:57:47.615Z,13.82
2022-08-17T06:00:30.777Z,13.27
2022-08-17T06:03:05.233Z,11.85
2022-08-17T06:05:51.376Z,14.02
2022-08-17T06:08:25.851Z,12.50
2022-08-17T06:11:01.171Z,12.88
2022-08-17T06:13:45.083Z,13.10
2022-08-17T06:16:33.521Z,13.10
2022-08-17T06:19:05.940Z,12.52
2022-08-17T06:21:39.862Z,12.23
2022-08-17T06:24:20.549Z,12.88
2022-08-17T06:26:47.242Z,13.40
2022-08-17T06:29:35.383Z,13.07
2022-08-17T06:32:02.600Z,12.57
2022-08-17T06:34:29.837Z,12.15
2022-08-17T06:37:15.584Z,12.68
2022-08-17T06:39:49.807Z,11.32
2022-08-17T06:43:02.136Z,11.88
2022-08-17T06:45:35.075Z,12.00
2022-08-17T06:48:15.709Z,12.68
2022-08-17T06:50:49.585Z,12.20
2022-08-17T06:53:31.644Z,12.77
2022-08-17T06:56:13.635Z,13.23
2022-08-17T06:58:42.979Z,12.00
2022-08-17T07:01:17.923Z,12.27
2022-08-17T07:03:49.760Z,12.48
2022-08-17T07:06:20.222Z,11.95
2022-08-17T07:09:01.567Z,13.02
2022-08-17T07:11:30.929Z,12.25
2022-08-17T07:14:06.575Z,12.10
2022-08-17T07:16:54.125Z,11.63
2022-08-17T07:19:22.740Z,10.50
2022-08-17T07:22:07.327Z,9.85
2022-08-17T07:24:48.394Z,9.60
2022-08-17T07:27:22.787Z,8.23
2022-08-17T07:29:53.667Z,8.50
2022-08-17T07:32:31.510Z,8.38
2022-08-17T07:35:03.239Z,8.23
2022-08-17T07:37:33.586Z,7.32
2022-08-17T07:40:21.423Z,7.63
2022-08-17T07:43:08.812Z,7.78
2022-08-17T07:46:17.583Z,7.28
2022-08-17T07:48:49.548Z,6.53
2022-08-17T07:51:29.603Z,6.90
2022-08-17T07:54:13.530Z,6.15
2022-08-17T07:56:46.917Z,5.82
2022-08-17T07:59:23.501Z,6.13
2022-08-17T08:02:05.383Z,6.13
2022-08-17T08:05:00.729Z,5.93
2022-08-17T08:07:51.341Z,5.32
2022-08-17T08:10:35.629Z,5.55
2022-08-17T08:13:14.440Z,5.40
2022-08-17T08:15:45.138Z,5.43
2022-08-17T08:18:38.704Z,5.82
2022-08-17T08:21:45.597Z,5.03
2022-08-17T08:24:18.145Z,5.43
2022-08-17T08:27:25.330Z,5.47
2022-08-17T08:29:57.758Z,5.88
2022-08-17T08:32:50.338Z,5.57
2022-08-17T08:35:52.953Z,4.22
2022-08-17T08:38:31.295Z,4.15
2022-08-17T08:41:30.191Z,4.32
2022-08-17T08:44:22.184Z,3.92
2022-08-17T08:47:26.469Z,3.63
2022-08-17T08:50:30.122Z,3.30
2022-08-17T08:53:21.224Z,4.05
2022-08-17T08:56:20.753Z,4.70
2022-08-17T08:58:56.446Z,4.15
2022-08-17T09:01:26.265Z,4.22
2022-08-17T09:04:25.113Z,4.28
2022-08-17T09:07:10.474Z,4.25
2022-08-17T09:09:59.669Z,5.10
2022-08-17T09:12:50.938Z,4.10
2022-08-17T09:15:27.474Z,4.50
2022-08-17T09:18:59.210Z,4.45
2022-08-17T09:20:56.404Z,4.00
2022-08-17T09:23:32.498Z,4.30
2022-08-17T09:26:13.695Z,3.72
2022-08-17T09:28:42.595Z,4.03
2022-08-17T09:31:12.065Z,3.97
2022-08-17T09:33:45.013Z,4.22
2022-08-17T09:36:16.183Z,2.92
2022-08-17T09:39:06.739Z,3.20
2022-08-17T09:41:53.022Z,3.25
2022-08-17T09:44:48.901Z,3.08
2022-08-17T09:47:34.973Z,2.70
2022-08-17T09:50:16.266Z,2.90
2022-08-17T09:52:43.139Z,2.90
2022-08-17T09:55:09.591Z,2.90
2022-08-17T09:57:58.999Z,2.58
2022-08-17T10:00:35.119Z,2.35
2022-08-17T10:03:16.781Z,2.10
2022-08-17T10:05:55.013Z,2.53
2022-08-17T10:08:35.620Z,2.38
2022-08-17T10:11:33.518Z,2.20
2022-08-17T10:14:36.025Z,2.45
2022-08-17T10:17:06.087Z,2.58
2022-08-17T10:19:40.259Z,2.30
2022-08-17T10:22:38.427Z,2.53
2022-08-17T10:25:37.553Z,2.30
2022-08-17T10:28:20.080Z,2.30
2022-08-17T10:31:01.416Z,2.50
2022-08-17T10:34:18.840Z,2.45
2022-08-17T10:36:52.345Z,2.15
2022-08-17T10:39:50.417Z,2.42
2022-08-17T10:42:32.476Z,2.30
2022-08-17T10:45:06.215Z,2.08
2022-08-17T10:48:06.379Z,2.30
2022-08-17T10:51:00.525Z,2.30
2022-08-17T10:53:33.067Z,2.17
2022-08-17T10:56:11.836Z,2.20
2022-08-17T10:58:46.264Z,2.17
2022-08-17T11:01:13.162Z,2.38
2022-08-17T11:03:57.379Z,2.05
2022-08-17T11:06:29.715Z,2.13
2022-08-17T11:09:05.703Z,2.30
2022-08-17T11:11:45.369Z,2.15
2022-08-17T11:14:36.274Z,2.05
2022-08-17T11:17:09.243Z,2.08
2022-08-17T11:19:55.194Z,2.00
2022-08-17T11:22:46.471Z,2.20
2022-08-17T11:25:18.463Z,2.03
2022-08-17T11:30:14.882Z,1.90
2022-08-17T11:32:48.836Z,1.92
2022-08-17T11:35:20.917Z,2.00
2022-08-17T11:37:59.459Z,2.42
2022-08-17T11:40:42.051Z,1.92
2022-08-17T11:43:21.315Z,2.35
2022-08-17T11:46:02.253Z,2.20
2022-08-17T11:49:01.434Z,2.10
2022-08-17T11:51:56.189Z,2.30
2022-08-17T11:54:35.617Z,1.92
2022-08-17T11:57:34.097Z,2.20
2022-08-17T12:00:11.865Z,2.20
2022-08-17T12:02:50.789Z,2.10
2022-08-17T12:05:18.424Z,2.15
2022-08-17T12:07:48.241Z,2.03
2022-08-17T12:10:19.338Z,2.00
2022-08-17T12:12:48.564Z,2.40
2022-08-17T12:15:40.031Z,2.13
2022-08-17T12:18:06.990Z,2.20
2022-08-17T12:20:39.213Z,2.20
2022-08-17T12:23:11.687Z,2.08
2022-08-17T12:26:01.305Z,2.45
2022-08-17T12:28:33.517Z,2.40
2022-08-17T12:31:07.240Z,2.22
2022-08-17T12:33:36.263Z,2.58
2022-08-17T12:36:06.268Z,2.20
2022-08-17T12:38:36.437Z,2.20
2022-08-17T12:41:29.561Z,2.50
2022-08-17T12:44:21.877Z,2.58
2022-08-17T12:47:05.119Z,2.65
2022-08-17T12:49:43.027Z,2.35
2022-08-17T12:52:17.355Z,2.83
2022-08-17T12:55:00.836Z,2.60
2022-08-17T12:57:32.736Z,2.40
2022-08-17T13:02:46.316Z,2.30
2022-08-17T13:05:18.814Z,2.40
2022-08-17T13:07:46.641Z,2.47
2022-08-17T13:10:21.489Z,2.67
2022-08-17T13:12:50.887Z,2.60
2022-08-17T13:15:20.964Z,2.50
2022-08-17T13:17:56.979Z,2.70
2022-08-17T13:20:23.689Z,2.60
2022-08-17T13:22:58.598Z,2.50
2022-08-17T13:25:25.928Z,2.92
2022-08-17T13:27:53.401Z,2.65
2022-08-17T13:30:24.004Z,2.60
2022-08-17T13:32:50.625Z,2.50
2022-08-17T13:35:49.930Z,2.53
2022-08-17T13:38:49.383Z,2.40
2022-08-17T13:41:34.713Z,2.38
2022-08-17T13:44:01.353Z,2.60
2022-08-17T13:46:33.052Z,2.30
2022-08-17T13:49:11.588Z,2.33
2022-08-17T13:51:46.197Z,2.28
2022-08-17T13:54:23.688Z,2.15
2022-08-17T13:57:21.542Z,2.42
2022-08-17T13:59:54.434Z,2.58
2022-08-17T14:02:21.877Z,2.20
2022-08-17T14:04:48.500Z,2.50
2022-08-17T14:07:15.921Z,2.13
2022-08-17T14:09:55.715Z,2.35
2022-08-17T14:12:24.967Z,2.10
2022-08-17T14:14:52.435Z,2.33
2022-08-17T14:17:20.168Z,2.15
2022-08-17T14:19:46.657Z,2.70
2022-08-17T14:22:23.648Z,2.30
2022-08-17T14:24:51.268Z,2.08
2022-08-17T14:27:18.384Z,2.45
2022-08-17T14:29:45.163Z,2.25
2022-08-17T14:32:18.826Z,2.40
2022-08-17T14:34:46.171Z,2.33
2022-08-17T14:37:13.058Z,2.55
2022-08-17T14:39:39.661Z,2.35
2022-08-17T14:42:06.461Z,2.53
2022-08-17T14:44:33.046Z,2.83
2022-08-17T14:46:59.501Z,2.50
2022-08-17T14:49:26.071Z,2.50
2022-08-17T14:51:52.863Z,2.60
2022-08-17T14:54:32.912Z,2.47
2022-08-17T14:57:23.448Z,2.83
2022-08-17T14:59:50.703Z,2.72
2022-08-17T15:02:22.432Z,2.88
2022-08-17T15:05:01.740Z,2.60
2022-08-17T15:07:30.402Z,2.80
2022-08-17T15:09:58.714Z,2.28
2022-08-17T15:12:32.050Z,2.40
2022-08-17T15:15:00.620Z,2.60
2022-08-17T15:17:27.267Z,2.40
2022-08-17T15:20:18.701Z,2.50
2022-08-17T15:22:46.759Z,2.40
2022-08-17T15:25:13.852Z,2.60
2022-08-17T15:27:40.542Z,2.33
2022-08-17T15:30:08.135Z,2.70
2022-08-17T15:32:38.176Z,2.30
2022-08-17T15:35:06.808Z,2.67
2022-08-17T15:37:33.378Z,2.25
2022-08-17T15:40:01.223Z,2.60
2022-08-17T15:42:27.970Z,2.72
2022-08-17T15:44:57.212Z,2.78
2022-08-17T15:47:24.471Z,2.38
2022-08-17T15:49:51.156Z,2.72
2022-08-17T15:52:24.293Z,2.60
2022-08-17T15:54:57.682Z,2.40
2022-08-17T15:57:25.658Z,2.80
2022-08-17T15:59:59.059Z,2.50
2022-08-17T16:03:15.060Z,2.47
2022-08-17T16:05:21.931Z,2.65
2022-08-17T16:07:51.691Z,2.53
2022-08-17T16:10:19.411Z,2.53
2022-08-17T16:12:47.645Z,2.50
2022-08-17T16:15:15.085Z,2.38
2022-08-17T16:17:41.883Z,2.33
2022-08-17T16:20:19.987Z,2.72
2022-08-17T16:22:48.619Z,3.25
2022-08-17T16:25:18.822Z,2.85
2022-08-17T16:27:46.665Z,2.70
2022-08-17T16:30:17.505Z,2.25
2022-08-17T16:32:45.290Z,2.50
2022-08-17T16:35:14.297Z,2.88
2022-08-17T16:37:41.797Z,2.60
2022-08-17T16:40:12.643Z,3.00
2022-08-17T16:42:39.627Z,2.72
2022-08-17T16:45:16.806Z,2.30
2022-08-17T16:47:43.562Z,2.58
2022-08-17T16:50:11.628Z,2.50
2022-08-17T16:52:38.615Z,2.90
2022-08-17T16:55:07.236Z,2.42
2022-08-17T16:57:34.003Z,2.50
2022-08-17T17:00:00.532Z,2.53
2022-08-17T17:02:32.377Z,2.65
2022-08-17T17:05:39.132Z,2.47
2022-08-17T17:08:19.477Z,2.00
2022-08-17T17:10:49.125Z,2.50
2022-08-17T17:13:25.862Z,2.50
2022-08-17T17:15:59.748Z,2.53
2022-08-17T17:18:32.459Z,2.33
2022-08-17T17:20:59.248Z,2.80
2022-08-17T17:23:45.096Z,2.50
2022-08-17T17:26:34.235Z,2.92
2022-08-17T17:29:46.513Z,2.58
2022-08-17T17:32:25.210Z,2.70
2022-08-17T17:34:56.036Z,2.20
2022-08-17T17:37:27.729Z,2.25
2022-08-17T17:39:57.012Z,2.22
2022-08-17T17:42:31.161Z,2.50
2022-08-17T17:45:09.652Z,2.38
2022-08-17T17:47:36.389Z,2.60
2022-08-17T17:50:05.494Z,2.38
2022-08-17T17:52:59.560Z,2.50
2022-08-17T17:55:29.557Z,2.38
2022-08-17T17:58:23.721Z,2.50
2022-08-17T18:00:50.182Z,2.70
2022-08-17T18:03:30.918Z,2.47
2022-08-17T18:06:02.947Z,2.50
2022-08-17T18:11:24.010Z,2.65
2022-08-17T18:13:58.202Z,2.70
2022-08-17T18:16:26.915Z,2.55
2022-08-17T18:18:57.465Z,2.53
2022-08-17T18:21:29.300Z,2.85
2022-08-17T18:24:01.787Z,2.92
2022-08-17T18:26:34.523Z,2.60
2022-08-17T18:29:02.794Z,2.53
2022-08-17T18:31:29.375Z,2.50
2022-08-17T18:34:43.872Z,2.33
2022-08-17T18:37:09.522Z,2.30
2022-08-17T18:39:38.171Z,2.45
2022-08-17T18:42:22.539Z,2.35
2022-08-17T18:44:54.291Z,2.50
2022-08-17T18:47:26.817Z,2.58
2022-08-17T18:49:57.935Z,2.70
2022-08-17T18:52:32.375Z,2.60
2022-08-17T18:55:16.177Z,2.40
2022-08-17T18:57:47.355Z,2.40
2022-08-17T19:00:35.688Z,2.53
2022-08-17T19:03:04.219Z,2.80
2022-08-17T19:05:37.875Z,2.50
2022-08-17T19:08:32.885Z,2.60
2022-08-17T19:10:59.209Z,2.70
2022-08-17T19:13:43.749Z,2.50
2022-08-17T19:16:15.320Z,3.03
2022-08-17T19:21:38.529Z,3.33
2022-08-17T19:24:14.172Z,2.83
2022-08-17T19:26:53.561Z,3.17
2022-08-17T19:29:35.958Z,4.20
2022-08-17T19:32:03.198Z,4.20
2022-08-17T19:34:34.091Z,4.68
2022-08-17T19:37:14.273Z,4.25
2022-08-17T19:39:51.877Z,5.18
2022-08-17T19:42:39.282Z,5.45
2022-08-17T19:45:18.446Z,5.30
2022-08-17T19:47:55.611Z,6.30
2022-08-17T19:50:41.235Z,6.20
2022-08-17T19:53:36.728Z,6.63
2022-08-17T19:56:45.396Z,6.80
2022-08-17T19:59:23.691Z,7.93
2022-08-17T20:01:59.018Z,7.50
2022-08-17T20:04:34.047Z,7.32
2022-08-17T20:07:03.994Z,8.23
2022-08-17T20:09:44.968Z,7.18
2022-08-17T20:12:17.435Z,8.52
2022-08-17T20:14:55.172Z,8.23
2022-08-17T20:17:24.678Z,10.05
2022-08-17T20:22:31.290Z,10.23
2022-08-17T20:25:09.317Z,8.90
2022-08-17T20:27:48.343Z,10.13
2022-08-17T20:30:25.154Z,8.75
2022-08-17T20:32:55.424Z,9.38
2022-08-17T20:35:25.816Z,9.77
2022-08-17T20:38:02.090Z,10.63
2022-08-17T20:40:35.133Z,10.80
2022-08-17T20:43:43.070Z,10.60
2022-08-17T20:46:35.648Z,12.13
2022-08-17T20:52:00.642Z,12.07
2022-08-17T20:54:27.418Z,13.43
2022-08-17T20:56:57.206Z,13.00
2022-08-17T20:59:28.304Z,14.05
2022-08-17T21:02:17.579Z,14.38
2022-08-17T21:04:52.734Z,14.15
2022-08-17T21:07:33.007Z,14.90
2022-08-17T21:10:21.740Z,16.02
2022-08-17T21:12:52.697Z,19.80
2022-08-17T21:15:48.498Z,21.02
2022-08-17T21:18:38.469Z,22.35
2022-08-17T21:21:33.406Z,19.70
2022-08-17T21:24:21.452Z,22.05
2022-08-17T21:27:03.013Z,24.17
2022-08-17T21:29:33.777Z,22.90
2022-08-17T21:32:03.622Z,23.70
2022-08-17T21:34:33.161Z,22.33
2022-08-17T21:37:29.506Z,22.52
2022-08-17T21:40:00.368Z,21.77
2022-08-17T21:42:32.434Z,21.35
2022-08-17T21:45:19.996Z,22.48
2022-08-17T21:47:56.420Z,22.77
2022-08-17T21:50:25.649Z,22.65
2022-08-17T21:52:55.894Z,23.42
2022-08-17T21:55:28.378Z,27.33
2022-08-17T21:58:14.148Z,26.33
2022-08-17T22:00:41.556Z,26.23
2022-08-17T22:03:23.776Z,27.60
2022-08-17T22:05:51.200Z,28.52
2022-08-17T22:08:24.013Z,29.67
2022-08-17T22:10:51.564Z,30.00
2022-08-17T22:13:17.985Z,28.27
2022-08-17T22:15:46.966Z,27.90
2022-08-17T22:18:19.619Z,29.98
2022-08-17T22:20:50.625Z,30.10
2022-08-17T22:23:53.998Z,31.38
2022-08-17T22:26:22.796Z,31.48
2022-08-17T22:28:54.216Z,30.15
2022-08-17T22:31:26.195Z,30.30
2022-08-17T22:34:10.836Z,30.48
2022-08-17T22:36:39.365Z,33.22
2022-08-17T22:39:08.479Z,33.90
2022-08-17T22:41:48.038Z,34.38
2022-08-17T22:44:33.131Z,37.25
2022-08-17T22:47:02.438Z,36.95
2022-08-17T22:49:32.151Z,37.17
2022-08-17T22:52:30.101Z,37.92
2022-08-17T22:55:33.793Z,40.10
2022-08-17T22:58:19.385Z,41.35
2022-08-17T23:00:48.115Z,40.10
2022-08-17T23:03:23.866Z,38.85
2022-08-17T23:06:05.948Z,41.40
2022-08-17T23:08:34.937Z,41.70
2022-08-17T23:11:01.665Z,41.67
2022-08-17T23:13:28.526Z,41.47
2022-08-17T23:15:55.036Z,43.97
2022-08-17T23:18:23.323Z,42.47
2022-08-17T23:20:49.726Z,43.72
2022-08-17T23:23:23.393Z,43.03
2022-08-17T23:25:50.228Z,43.38
2022-08-17T23:28:16.879Z,44.53
2022-08-17T23:30:44.647Z,45.13
2022-08-17T23:33:21.390Z,46.38
2022-08-17T23:35:47.922Z,46.00
2022-08-17T23:38:14.530Z,45.97
2022-08-17T23:40:41.044Z,48.88
2022-08-17T23:43:25.255Z,51.15
2022-08-17T23:45:54.557Z,52.60
2022-08-17T23:48:32.618Z,50.40
2022-08-17T23:51:14.995Z,49.55
2022-08-17T23:53:47.171Z,53.15
2022-08-17T23:56:14.535Z,53.35
2022-08-17T23:58:42.113Z,50.92
